sensor_id;sensor_type;location;lat;lon;timestamp;P1;durP1;ratioP1;P2;durP2;ratioP2
47053;SDS011;32811;52.382;5.270;2024-01-11T00:00:29;18.27;;;10.23;;
47053;SDS011;32811;52.382;5.270;2024-01-11T00:02:56;23.10;;;10.73;;
47053;SDS011;32811;52.382;5.270;2024-01-11T00:05:23;21.90;;;11.32;;
47053;SDS011;32811;52.382;5.270;2024-01-11T00:07:53;19.38;;;10.57;;
47053;SDS011;32811;52.382;5.270;2024-01-11T00:10:20;21.42;;;11.07;;
47053;SDS011;32811;52.382;5.270;2024-01-11T00:12:46;20.02;;;11.20;;
47053;SDS011;32811;52.382;5.270;2024-01-11T00:15:13;22.17;;;12.15;;
47053;SDS011;32811;52.382;5.270;2024-01-11T00:17:40;21.60;;;11.82;;
47053;SDS011;32811;52.382;5.270;2024-01-11T00:20:07;22.60;;;11.00;;
47053;SDS011;32811;52.382;5.270;2024-01-11T00:22:34;18.83;;;10.40;;
47053;SDS011;32811;52.382;5.270;2024-01-11T00:25:01;24.58;;;11.38;;
47053;SDS011;32811;52.382;5.270;2024-01-11T00:27:27;23.88;;;11.38;;
47053;SDS011;32811;52.382;5.270;2024-01-11T00:29:54;20.38;;;9.95;;
47053;SDS011;32811;52.382;5.270;2024-01-11T00:32:20;22.55;;;10.85;;
47053;SDS011;32811;52.382;5.270;2024-01-11T00:34:47;22.52;;;11.10;;
47053;SDS011;32811;52.382;5.270;2024-01-11T00:37:14;24.30;;;10.65;;
47053;SDS011;32811;52.382;5.270;2024-01-11T00:39:41;19.10;;;11.02;;
47053;SDS011;32811;52.382;5.270;2024-01-11T00:42:08;20.50;;;10.60;;
47053;SDS011;32811;52.382;5.270;2024-01-11T00:44:35;19.02;;;9.90;;
47053;SDS011;32811;52.382;5.270;2024-01-11T00:47:01;20.25;;;11.45;;
47053;SDS011;32811;52.382;5.270;2024-01-11T00:49:28;23.30;;;11.05;;
47053;SDS011;32811;52.382;5.270;2024-01-11T00:51:55;21.80;;;10.88;;
47053;SDS011;32811;52.382;5.270;2024-01-11T00:54:21;24.40;;;11.32;;
47053;SDS011;32811;52.382;5.270;2024-01-11T00:56:50;21.50;;;10.82;;
47053;SDS011;32811;52.382;5.270;2024-01-11T00:59:16;23.85;;;11.15;;
47053;SDS011;32811;52.382;5.270;2024-01-11T01:01:49;22.27;;;10.85;;
47053;SDS011;32811;52.382;5.270;2024-01-11T01:04:18;21.35;;;11.63;;
47053;SDS011;32811;52.382;5.270;2024-01-11T01:06:45;18.80;;;11.35;;
47053;SDS011;32811;52.382;5.270;2024-01-11T01:09:12;19.65;;;10.98;;
47053;SDS011;32811;52.382;5.270;2024-01-11T01:11:39;20.70;;;11.23;;
47053;SDS011;32811;52.382;5.270;2024-01-11T01:14:06;21.20;;;12.07;;
47053;SDS011;32811;52.382;5.270;2024-01-11T01:16:36;24.65;;;13.23;;
47053;SDS011;32811;52.382;5.270;2024-01-11T01:19:02;22.73;;;12.82;;
47053;SDS011;32811;52.382;5.270;2024-01-11T01:21:29;25.95;;;12.23;;
47053;SDS011;32811;52.382;5.270;2024-01-11T01:23:56;25.10;;;12.95;;
47053;SDS011;32811;52.382;5.270;2024-01-11T01:26:23;23.90;;;11.80;;
47053;SDS011;32811;52.382;5.270;2024-01-11T01:28:49;25.48;;;11.63;;
47053;SDS011;32811;52.382;5.270;2024-01-11T01:31:16;21.08;;;11.45;;
47053;SDS011;32811;52.382;5.270;2024-01-11T01:33:42;23.25;;;12.77;;
47053;SDS011;32811;52.382;5.270;2024-01-11T01:36:10;26.98;;;12.50;;
47053;SDS011;32811;52.382;5.270;2024-01-11T01:38:37;23.23;;;12.85;;
47053;SDS011;32811;52.382;5.270;2024-01-11T01:41:04;23.52;;;12.80;;
47053;SDS011;32811;52.382;5.270;2024-01-11T01:43:31;21.15;;;11.52;;
47053;SDS011;32811;52.382;5.270;2024-01-11T01:45:57;26.67;;;12.95;;
47053;SDS011;32811;52.382;5.270;2024-01-11T01:48:25;21.25;;;12.07;;
47053;SDS011;32811;52.382;5.270;2024-01-11T01:50:53;25.00;;;12.55;;
47053;SDS011;32811;52.382;5.270;2024-01-11T01:53:21;27.45;;;12.73;;
47053;SDS011;32811;52.382;5.270;2024-01-11T01:55:49;23.70;;;13.23;;
47053;SDS011;32811;52.382;5.270;2024-01-11T01:58:18;28.20;;;14.57;;
47053;SDS011;32811;52.382;5.270;2024-01-11T02:00:47;25.25;;;12.90;;
47053;SDS011;32811;52.382;5.270;2024-01-11T02:03:16;21.20;;;12.43;;
47053;SDS011;32811;52.382;5.270;2024-01-11T02:05:47;21.08;;;11.82;;
47053;SDS011;32811;52.382;5.270;2024-01-11T02:08:15;27.95;;;14.77;;
47053;SDS011;32811;52.382;5.270;2024-01-11T02:10:44;27.10;;;13.13;;
47053;SDS011;32811;52.382;5.270;2024-01-11T02:13:12;32.83;;;14.55;;
47053;SDS011;32811;52.382;5.270;2024-01-11T02:15:39;24.27;;;13.18;;
47053;SDS011;32811;52.382;5.270;2024-01-11T02:18:06;28.52;;;13.35;;
47053;SDS011;32811;52.382;5.270;2024-01-11T02:20:33;22.30;;;13.07;;
47053;SDS011;32811;52.382;5.270;2024-01-11T02:23:05;27.05;;;13.52;;
47053;SDS011;32811;52.382;5.270;2024-01-11T02:25:34;28.10;;;14.15;;
47053;SDS011;32811;52.382;5.270;2024-01-11T02:28:00;25.67;;;13.25;;
47053;SDS011;32811;52.382;5.270;2024-01-11T02:30:27;27.67;;;15.15;;
47053;SDS011;32811;52.382;5.270;2024-01-11T02:32:55;28.15;;;14.43;;
47053;SDS011;32811;52.382;5.270;2024-01-11T02:35:23;27.30;;;13.50;;
47053;SDS011;32811;52.382;5.270;2024-01-11T02:37:51;25.67;;;14.65;;
47053;SDS011;32811;52.382;5.270;2024-01-11T02:40:17;27.98;;;14.20;;
47053;SDS011;32811;52.382;5.270;2024-01-11T02:42:45;27.60;;;14.35;;
47053;SDS011;32811;52.382;5.270;2024-01-11T02:45:11;25.25;;;14.63;;
47053;SDS011;32811;52.382;5.270;2024-01-11T02:47:39;30.00;;;14.85;;
47053;SDS011;32811;52.382;5.270;2024-01-11T02:50:06;29.20;;;14.68;;
47053;SDS011;32811;52.382;5.270;2024-01-11T02:52:34;32.65;;;15.57;;
47053;SDS011;32811;52.382;5.270;2024-01-11T02:55:04;24.67;;;13.15;;
47053;SDS011;32811;52.382;5.270;2024-01-11T02:57:35;27.52;;;15.77;;
47053;SDS011;32811;52.382;5.270;2024-01-11T03:00:02;29.77;;;14.65;;
47053;SDS011;32811;52.382;5.270;2024-01-11T03:02:28;32.30;;;16.05;;
47053;SDS011;32811;52.382;5.270;2024-01-11T03:04:55;33.80;;;16.60;;
47053;SDS011;32811;52.382;5.270;2024-01-11T03:07:22;28.83;;;15.77;;
47053;SDS011;32811;52.382;5.270;2024-01-11T03:09:49;31.58;;;16.15;;
47053;SDS011;32811;52.382;5.270;2024-01-11T03:12:15;29.02;;;16.08;;
47053;SDS011;32811;52.382;5.270;2024-01-11T03:14:42;31.13;;;15.48;;
47053;SDS011;32811;52.382;5.270;2024-01-11T03:17:08;32.03;;;16.30;;
47053;SDS011;32811;52.382;5.270;2024-01-11T03:19:39;31.90;;;15.57;;
47053;SDS011;32811;52.382;5.270;2024-01-11T03:22:07;32.85;;;15.23;;
47053;SDS011;32811;52.382;5.270;2024-01-11T03:24:38;31.27;;;15.23;;
47053;SDS011;32811;52.382;5.270;2024-01-11T03:27:05;33.08;;;17.67;;
47053;SDS011;32811;52.382;5.270;2024-01-11T03:29:33;35.58;;;16.38;;
47053;SDS011;32811;52.382;5.270;2024-01-11T03:32:00;35.00;;;16.23;;
47053;SDS011;32811;52.382;5.270;2024-01-11T03:34:27;30.63;;;16.50;;
47053;SDS011;32811;52.382;5.270;2024-01-11T03:36:54;31.98;;;16.38;;
47053;SDS011;32811;52.382;5.270;2024-01-11T03:39:20;31.20;;;15.68;;
47053;SDS011;32811;52.382;5.270;2024-01-11T03:41:47;32.83;;;16.45;;
47053;SDS011;32811;52.382;5.270;2024-01-11T03:44:14;35.03;;;16.83;;
47053;SDS011;32811;52.382;5.270;2024-01-11T03:46:41;29.08;;;16.30;;
47053;SDS011;32811;52.382;5.270;2024-01-11T03:49:07;29.00;;;16.13;;
47053;SDS011;32811;52.382;5.270;2024-01-11T03:51:34;33.90;;;17.73;;
47053;SDS011;32811;52.382;5.270;2024-01-11T03:54:01;33.92;;;16.08;;
47053;SDS011;32811;52.382;5.270;2024-01-11T03:56:27;30.83;;;17.55;;
47053;SDS011;32811;52.382;5.270;2024-01-11T03:58:54;31.30;;;16.73;;
47053;SDS011;32811;52.382;5.270;2024-01-11T04:01:21;31.10;;;16.98;;
47053;SDS011;32811;52.382;5.270;2024-01-11T04:03:48;39.67;;;19.02;;
47053;SDS011;32811;52.382;5.270;2024-01-11T04:06:22;35.65;;;19.65;;
47053;SDS011;32811;52.382;5.270;2024-01-11T04:08:50;35.00;;;19.27;;
47053;SDS011;32811;52.382;5.270;2024-01-11T04:11:17;30.60;;;17.30;;
47053;SDS011;32811;52.382;5.270;2024-01-11T04:13:44;37.17;;;20.23;;
47053;SDS011;32811;52.382;5.270;2024-01-11T04:16:10;37.33;;;18.60;;
47053;SDS011;32811;52.382;5.270;2024-01-11T04:18:37;35.55;;;17.00;;
47053;SDS011;32811;52.382;5.270;2024-01-11T04:21:04;34.45;;;18.40;;
47053;SDS011;32811;52.382;5.270;2024-01-11T04:23:30;30.33;;;17.00;;
47053;SDS011;32811;52.382;5.270;2024-01-11T04:25:57;34.15;;;19.13;;
47053;SDS011;32811;52.382;5.270;2024-01-11T04:28:24;35.60;;;17.17;;
47053;SDS011;32811;52.382;5.270;2024-01-11T04:30:50;39.30;;;18.75;;
47053;SDS011;32811;52.382;5.270;2024-01-11T04:33:17;37.72;;;18.02;;
47053;SDS011;32811;52.382;5.270;2024-01-11T04:35:44;33.47;;;17.77;;
47053;SDS011;32811;52.382;5.270;2024-01-11T04:38:10;37.47;;;17.33;;
47053;SDS011;32811;52.382;5.270;2024-01-11T04:40:37;33.28;;;18.90;;
47053;SDS011;32811;52.382;5.270;2024-01-11T04:43:04;34.03;;;17.95;;
47053;SDS011;32811;52.382;5.270;2024-01-11T04:45:35;34.63;;;18.30;;
47053;SDS011;32811;52.382;5.270;2024-01-11T04:48:01;32.13;;;16.98;;
47053;SDS011;32811;52.382;5.270;2024-01-11T04:50:28;34.42;;;18.58;;
47053;SDS011;32811;52.382;5.270;2024-01-11T04:52:55;32.05;;;17.92;;
47053;SDS011;32811;52.382;5.270;2024-01-11T04:55:22;37.67;;;19.02;;
47053;SDS011;32811;52.382;5.270;2024-01-11T04:57:48;37.22;;;17.27;;
47053;SDS011;32811;52.382;5.270;2024-01-11T05:00:15;32.28;;;17.92;;
47053;SDS011;32811;52.382;5.270;2024-01-11T05:02:42;35.00;;;18.33;;
47053;SDS011;32811;52.382;5.270;2024-01-11T05:05:09;33.58;;;18.58;;
47053;SDS011;32811;52.382;5.270;2024-01-11T05:07:35;31.65;;;17.20;;
47053;SDS011;32811;52.382;5.270;2024-01-11T05:10:02;35.20;;;17.85;;
47053;SDS011;32811;52.382;5.270;2024-01-11T05:12:29;29.90;;;16.10;;
47053;SDS011;32811;52.382;5.270;2024-01-11T05:14:55;34.50;;;18.17;;
47053;SDS011;32811;52.382;5.270;2024-01-11T05:17:22;33.67;;;17.58;;
47053;SDS011;32811;52.382;5.270;2024-01-11T05:19:49;30.05;;;16.33;;
47053;SDS011;32811;52.382;5.270;2024-01-11T05:22:15;31.58;;;16.98;;
47053;SDS011;32811;52.382;5.270;2024-01-11T05:24:42;34.42;;;17.33;;
47053;SDS011;32811;52.382;5.270;2024-01-11T05:27:08;34.78;;;18.33;;
47053;SDS011;32811;52.382;5.270;2024-01-11T05:29:35;34.50;;;17.65;;
47053;SDS011;32811;52.382;5.270;2024-01-11T05:32:02;31.52;;;16.25;;
47053;SDS011;32811;52.382;5.270;2024-01-11T05:34:29;31.27;;;16.38;;
47053;SDS011;32811;52.382;5.270;2024-01-11T05:36:56;36.90;;;17.08;;
47053;SDS011;32811;52.382;5.270;2024-01-11T05:39:25;34.47;;;17.52;;
47053;SDS011;32811;52.382;5.270;2024-01-11T05:41:52;32.22;;;17.58;;
47053;SDS011;32811;52.382;5.270;2024-01-11T05:44:18;31.23;;;16.35;;
47053;SDS011;32811;52.382;5.270;2024-01-11T05:46:45;31.33;;;16.83;;
47053;SDS011;32811;52.382;5.270;2024-01-11T05:49:12;30.27;;;16.52;;
47053;SDS011;32811;52.382;5.270;2024-01-11T05:51:38;34.40;;;17.77;;
47053;SDS011;32811;52.382;5.270;2024-01-11T05:54:05;31.83;;;16.60;;
47053;SDS011;32811;52.382;5.270;2024-01-11T05:56:31;34.72;;;17.23;;
47053;SDS011;32811;52.382;5.270;2024-01-11T05:58:58;36.97;;;18.73;;
47053;SDS011;32811;52.382;5.270;2024-01-11T06:01:25;34.42;;;18.00;;
47053;SDS011;32811;52.382;5.270;2024-01-11T06:03:52;36.92;;;16.90;;
47053;SDS011;32811;52.382;5.270;2024-01-11T06:06:18;34.75;;;18.45;;
47053;SDS011;32811;52.382;5.270;2024-01-11T06:08:45;39.80;;;20.80;;
47053;SDS011;32811;52.382;5.270;2024-01-11T06:11:12;35.13;;;17.65;;
47053;SDS011;32811;52.382;5.270;2024-01-11T06:13:40;39.00;;;19.23;;
47053;SDS011;32811;52.382;5.270;2024-01-11T06:16:07;37.35;;;18.75;;
47053;SDS011;32811;52.382;5.270;2024-01-11T06:18:38;37.75;;;17.92;;
47053;SDS011;32811;52.382;5.270;2024-01-11T06:21:05;38.75;;;19.80;;
47053;SDS011;32811;52.382;5.270;2024-01-11T06:23:31;34.78;;;19.70;;
47053;SDS011;32811;52.382;5.270;2024-01-11T06:25:58;35.28;;;19.48;;
47053;SDS011;32811;52.382;5.270;2024-01-11T06:28:25;40.53;;;19.23;;
47053;SDS011;32811;52.382;5.270;2024-01-11T06:30:51;44.63;;;19.45;;
47053;SDS011;32811;52.382;5.270;2024-01-11T06:33:19;37.47;;;18.63;;
47053;SDS011;32811;52.382;5.270;2024-01-11T06:35:47;37.45;;;17.98;;
47053;SDS011;32811;52.382;5.270;2024-01-11T06:38:13;35.40;;;17.02;;
47053;SDS011;32811;52.382;5.270;2024-01-11T06:40:40;32.15;;;18.33;;
47053;SDS011;32811;52.382;5.270;2024-01-11T06:43:10;37.97;;;19.60;;
47053;SDS011;32811;52.382;5.270;2024-01-11T06:45:37;41.35;;;19.83;;
47053;SDS011;32811;52.382;5.270;2024-01-11T06:48:05;38.55;;;19.15;;
47053;SDS011;32811;52.382;5.270;2024-01-11T06:50:33;34.03;;;17.67;;
47053;SDS011;32811;52.382;5.270;2024-01-11T06:53:00;31.40;;;17.40;;
47053;SDS011;32811;52.382;5.270;2024-01-11T06:55:27;38.53;;;18.10;;
47053;SDS011;32811;52.382;5.270;2024-01-11T06:57:54;36.25;;;18.52;;
47053;SDS011;32811;52.382;5.270;2024-01-11T07:00:21;32.08;;;16.77;;
47053;SDS011;32811;52.382;5.270;2024-01-11T07:02:48;38.65;;;17.70;;
47053;SDS011;32811;52.382;5.270;2024-01-11T07:05:14;32.95;;;18.15;;
47053;SDS011;32811;52.382;5.270;2024-01-11T07:07:41;40.03;;;17.85;;
47053;SDS011;32811;52.382;5.270;2024-01-11T07:10:08;37.20;;;16.45;;
47053;SDS011;32811;52.382;5.270;2024-01-11T07:12:35;33.05;;;16.42;;
47053;SDS011;32811;52.382;5.270;2024-01-11T07:15:04;36.67;;;16.98;;
47053;SDS011;32811;52.382;5.270;2024-01-11T07:17:31;36.92;;;17.92;;
47053;SDS011;32811;52.382;5.270;2024-01-11T07:19:58;34.13;;;15.80;;
47053;SDS011;32811;52.382;5.270;2024-01-11T07:22:24;36.80;;;17.60;;
47053;SDS011;32811;52.382;5.270;2024-01-11T07:24:51;34.30;;;17.88;;
47053;SDS011;32811;52.382;5.270;2024-01-11T07:27:18;36.95;;;16.85;;
47053;SDS011;32811;52.382;5.270;2024-01-11T07:29:45;39.67;;;18.15;;
47053;SDS011;32811;52.382;5.270;2024-01-11T07:32:11;39.22;;;17.95;;
47053;SDS011;32811;52.382;5.270;2024-01-11T07:34:38;35.17;;;17.85;;
47053;SDS011;32811;52.382;5.270;2024-01-11T07:37:05;36.67;;;17.80;;
47053;SDS011;32811;52.382;5.270;2024-01-11T07:39:32;35.53;;;17.98;;
47053;SDS011;32811;52.382;5.270;2024-01-11T07:41:58;43.08;;;18.60;;
47053;SDS011;32811;52.382;5.270;2024-01-11T07:44:25;41.83;;;17.63;;
47053;SDS011;32811;52.382;5.270;2024-01-11T07:46:51;37.53;;;16.77;;
47053;SDS011;32811;52.382;5.270;2024-01-11T07:49:21;37.25;;;18.65;;
47053;SDS011;32811;52.382;5.270;2024-01-11T07:51:48;42.42;;;19.65;;
47053;SDS011;32811;52.382;5.270;2024-01-11T07:54:15;40.22;;;18.77;;
47053;SDS011;32811;52.382;5.270;2024-01-11T07:56:42;35.35;;;18.35;;
47053;SDS011;32811;52.382;5.270;2024-01-11T07:59:09;40.35;;;18.92;;
47053;SDS011;32811;52.382;5.270;2024-01-11T08:01:41;34.25;;;17.10;;
47053;SDS011;32811;52.382;5.270;2024-01-11T08:04:07;37.78;;;19.50;;
47053;SDS011;32811;52.382;5.270;2024-01-11T08:06:34;35.88;;;17.83;;
47053;SDS011;32811;52.382;5.270;2024-01-11T08:09:01;44.80;;;19.15;;
47053;SDS011;32811;52.382;5.270;2024-01-11T08:11:31;38.92;;;17.55;;
47053;SDS011;32811;52.382;5.270;2024-01-11T08:14:02;43.17;;;19.63;;
47053;SDS011;32811;52.382;5.270;2024-01-11T08:16:29;35.38;;;16.88;;
47053;SDS011;32811;52.382;5.270;2024-01-11T08:18:56;35.25;;;18.55;;
47053;SDS011;32811;52.382;5.270;2024-01-11T08:21:22;37.58;;;18.40;;
47053;SDS011;32811;52.382;5.270;2024-01-11T08:23:49;46.20;;;20.45;;
47053;SDS011;32811;52.382;5.270;2024-01-11T08:26:16;40.92;;;18.85;;
47053;SDS011;32811;52.382;5.270;2024-01-11T08:28:48;40.88;;;19.45;;
47053;SDS011;32811;52.382;5.270;2024-01-11T08:31:15;35.35;;;17.38;;
47053;SDS011;32811;52.382;5.270;2024-01-11T08:33:41;28.48;;;15.27;;
47053;SDS011;32811;52.382;5.270;2024-01-11T08:36:08;32.83;;;16.17;;
47053;SDS011;32811;52.382;5.270;2024-01-11T08:38:36;30.75;;;15.73;;
47053;SDS011;32811;52.382;5.270;2024-01-11T08:41:07;30.70;;;15.52;;
47053;SDS011;32811;52.382;5.270;2024-01-11T08:43:33;28.40;;;15.38;;
47053;SDS011;32811;52.382;5.270;2024-01-11T08:46:00;27.17;;;14.65;;
47053;SDS011;32811;52.382;5.270;2024-01-11T08:48:28;29.10;;;13.57;;
47053;SDS011;32811;52.382;5.270;2024-01-11T08:50:58;24.02;;;13.65;;
47053;SDS011;32811;52.382;5.270;2024-01-11T08:53:24;25.33;;;14.77;;
47053;SDS011;32811;52.382;5.270;2024-01-11T08:55:51;28.92;;;15.00;;
47053;SDS011;32811;52.382;5.270;2024-01-11T08:58:19;28.33;;;15.05;;
47053;SDS011;32811;52.382;5.270;2024-01-11T09:00:46;27.10;;;14.38;;
47053;SDS011;32811;52.382;5.270;2024-01-11T09:03:13;28.77;;;14.82;;
47053;SDS011;32811;52.382;5.270;2024-01-11T09:05:41;27.20;;;13.50;;
47053;SDS011;32811;52.382;5.270;2024-01-11T09:08:08;25.63;;;13.45;;
47053;SDS011;32811;52.382;5.270;2024-01-11T09:10:35;23.95;;;13.05;;
47053;SDS011;32811;52.382;5.270;2024-01-11T09:13:02;23.80;;;13.65;;
47053;SDS011;32811;52.382;5.270;2024-01-11T09:15:28;23.95;;;13.82;;
47053;SDS011;32811;52.382;5.270;2024-01-11T09:17:55;33.97;;;15.77;;
47053;SDS011;32811;52.382;5.270;2024-01-11T09:20:22;21.17;;;13.13;;
47053;SDS011;32811;52.382;5.270;2024-01-11T09:22:49;26.90;;;14.88;;
47053;SDS011;32811;52.382;5.270;2024-01-11T09:25:15;22.35;;;12.98;;
47053;SDS011;32811;52.382;5.270;2024-01-11T09:27:42;24.23;;;13.73;;
47053;SDS011;32811;52.382;5.270;2024-01-11T09:30:09;24.92;;;13.18;;
47053;SDS011;32811;52.382;5.270;2024-01-11T09:32:36;20.05;;;13.07;;
47053;SDS011;32811;52.382;5.270;2024-01-11T09:35:03;24.33;;;14.02;;
47053;SDS011;32811;52.382;5.270;2024-01-11T09:37:31;26.75;;;14.50;;
47053;SDS011;32811;52.382;5.270;2024-01-11T09:39:58;23.83;;;13.20;;
47053;SDS011;32811;52.382;5.270;2024-01-11T09:42:27;28.40;;;15.52;;
47053;SDS011;32811;52.382;5.270;2024-01-11T09:44:54;72.35;;;27.65;;
47053;SDS011;32811;52.382;5.270;2024-01-11T09:47:22;45.35;;;23.25;;
47053;SDS011;32811;52.382;5.270;2024-01-11T09:49:54;38.88;;;18.35;;
47053;SDS011;32811;52.382;5.270;2024-01-11T09:52:22;32.47;;;17.05;;
47053;SDS011;32811;52.382;5.270;2024-01-11T09:54:49;32.10;;;17.73;;
47053;SDS011;32811;52.382;5.270;2024-01-11T09:57:16;27.88;;;15.00;;
47053;SDS011;32811;52.382;5.270;2024-01-11T09:59:52;21.63;;;13.23;;
47053;SDS011;32811;52.382;5.270;2024-01-11T10:02:25;27.88;;;15.93;;
47053;SDS011;32811;52.382;5.270;2024-01-11T10:04:56;24.05;;;14.43;;
47053;SDS011;32811;52.382;5.270;2024-01-11T10:07:23;27.40;;;15.70;;
47053;SDS011;32811;52.382;5.270;2024-01-11T10:09:51;25.92;;;14.48;;
47053;SDS011;32811;52.382;5.270;2024-01-11T10:12:18;23.25;;;14.15;;
47053;SDS011;32811;52.382;5.270;2024-01-11T10:14:49;22.85;;;14.52;;
47053;SDS011;32811;52.382;5.270;2024-01-11T10:17:16;23.13;;;14.10;;
47053;SDS011;32811;52.382;5.270;2024-01-11T10:19:48;23.40;;;13.80;;
47053;SDS011;32811;52.382;5.270;2024-01-11T10:22:15;23.77;;;13.93;;
47053;SDS011;32811;52.382;5.270;2024-01-11T10:24:43;22.08;;;13.65;;
47053;SDS011;32811;52.382;5.270;2024-01-11T10:27:11;23.13;;;12.32;;
47053;SDS011;32811;52.382;5.270;2024-01-11T10:29:38;28.88;;;12.88;;
47053;SDS011;32811;52.382;5.270;2024-01-11T10:32:05;24.52;;;14.68;;
47053;SDS011;32811;52.382;5.270;2024-01-11T10:34:32;26.08;;;15.30;;
47053;SDS011;32811;52.382;5.270;2024-01-11T10:36:59;26.15;;;15.23;;
47053;SDS011;32811;52.382;5.270;2024-01-11T10:39:26;21.92;;;13.52;;
47053;SDS011;32811;52.382;5.270;2024-01-11T10:41:57;29.17;;;14.02;;
47053;SDS011;32811;52.382;5.270;2024-01-11T10:44:33;23.63;;;12.95;;
47053;SDS011;32811;52.382;5.270;2024-01-11T10:47:02;18.35;;;12.18;;
47053;SDS011;32811;52.382;5.270;2024-01-11T10:49:33;21.60;;;12.48;;
47053;SDS011;32811;52.382;5.270;2024-01-11T10:52:02;18.83;;;11.70;;
47053;SDS011;32811;52.382;5.270;2024-01-11T10:54:30;25.85;;;13.55;;
47053;SDS011;32811;52.382;5.270;2024-01-11T10:57:00;25.90;;;13.48;;
47053;SDS011;32811;52.382;5.270;2024-01-11T10:59:27;18.63;;;12.20;;
47053;SDS011;32811;52.382;5.270;2024-01-11T11:02:02;15.98;;;10.50;;
47053;SDS011;32811;52.382;5.270;2024-01-11T11:04:33;19.85;;;11.65;;
47053;SDS011;32811;52.382;5.270;2024-01-11T11:07:02;18.70;;;12.05;;
47053;SDS011;32811;52.382;5.270;2024-01-11T11:09:29;18.73;;;11.13;;
47053;SDS011;32811;52.382;5.270;2024-01-11T11:11:59;22.10;;;13.38;;
47053;SDS011;32811;52.382;5.270;2024-01-11T11:14:27;25.38;;;13.77;;
47053;SDS011;32811;52.382;5.270;2024-01-11T11:16:54;20.13;;;12.70;;
47053;SDS011;32811;52.382;5.270;2024-01-11T11:19:21;23.27;;;13.20;;
47053;SDS011;32811;52.382;5.270;2024-01-11T11:21:48;21.38;;;12.48;;
47053;SDS011;32811;52.382;5.270;2024-01-11T11:24:15;21.45;;;11.45;;
47053;SDS011;32811;52.382;5.270;2024-01-11T11:26:43;21.20;;;12.23;;
47053;SDS011;32811;52.382;5.270;2024-01-11T11:29:09;23.63;;;11.70;;
47053;SDS011;32811;52.382;5.270;2024-01-11T11:31:43;19.65;;;11.90;;
47053;SDS011;32811;52.382;5.270;2024-01-11T11:34:20;21.50;;;12.38;;
47053;SDS011;32811;52.382;5.270;2024-01-11T11:36:47;19.05;;;12.45;;
47053;SDS011;32811;52.382;5.270;2024-01-11T11:39:16;21.63;;;12.25;;
47053;SDS011;32811;52.382;5.270;2024-01-11T11:41:44;30.95;;;12.00;;
47053;SDS011;32811;52.382;5.270;2024-01-11T11:44:12;18.52;;;12.00;;
47053;SDS011;32811;52.382;5.270;2024-01-11T11:46:42;19.17;;;11.60;;
47053;SDS011;32811;52.382;5.270;2024-01-11T11:49:10;16.08;;;10.77;;
47053;SDS011;32811;52.382;5.270;2024-01-11T11:51:38;21.75;;;11.95;;
47053;SDS011;32811;52.382;5.270;2024-01-11T11:54:06;19.98;;;11.63;;
47053;SDS011;32811;52.382;5.270;2024-01-11T11:56:36;21.38;;;12.55;;
47053;SDS011;32811;52.382;5.270;2024-01-11T11:59:03;20.73;;;12.90;;
47053;SDS011;32811;52.382;5.270;2024-01-11T12:01:30;20.73;;;13.40;;
47053;SDS011;32811;52.382;5.270;2024-01-11T12:03:57;20.40;;;13.40;;
47053;SDS011;32811;52.382;5.270;2024-01-11T12:06:24;17.35;;;11.98;;
47053;SDS011;32811;52.382;5.270;2024-01-11T12:08:54;18.95;;;11.82;;
47053;SDS011;32811;52.382;5.270;2024-01-11T12:11:23;19.05;;;12.23;;
47053;SDS011;32811;52.382;5.270;2024-01-11T12:13:51;16.17;;;10.65;;
47053;SDS011;32811;52.382;5.270;2024-01-11T12:16:19;20.90;;;11.90;;
47053;SDS011;32811;52.382;5.270;2024-01-11T12:18:48;22.27;;;11.45;;
47053;SDS011;32811;52.382;5.270;2024-01-11T12:21:15;18.38;;;12.23;;
47053;SDS011;32811;52.382;5.270;2024-01-11T12:23:43;24.25;;;11.95;;
47053;SDS011;32811;52.382;5.270;2024-01-11T12:26:10;17.75;;;11.18;;
47053;SDS011;32811;52.382;5.270;2024-01-11T12:28:41;16.92;;;11.93;;
47053;SDS011;32811;52.382;5.270;2024-01-11T12:31:09;17.80;;;11.25;;
47053;SDS011;32811;52.382;5.270;2024-01-11T12:33:36;17.65;;;11.98;;
47053;SDS011;32811;52.382;5.270;2024-01-11T12:36:05;20.55;;;12.82;;
47053;SDS011;32811;52.382;5.270;2024-01-11T12:38:34;21.05;;;12.77;;
47053;SDS011;32811;52.382;5.270;2024-01-11T12:41:02;20.13;;;12.50;;
47053;SDS011;32811;52.382;5.270;2024-01-11T12:43:30;20.98;;;12.32;;
47053;SDS011;32811;52.382;5.270;2024-01-11T12:45:57;22.40;;;12.80;;
47053;SDS011;32811;52.382;5.270;2024-01-11T12:48:23;19.98;;;12.35;;
47053;SDS011;32811;52.382;5.270;2024-01-11T12:50:50;23.00;;;13.90;;
47053;SDS011;32811;52.382;5.270;2024-01-11T12:53:39;20.42;;;13.32;;
47053;SDS011;32811;52.382;5.270;2024-01-11T12:56:06;23.92;;;14.85;;
47053;SDS011;32811;52.382;5.270;2024-01-11T12:58:42;25.85;;;13.90;;
47053;SDS011;32811;52.382;5.270;2024-01-11T13:01:09;20.00;;;12.73;;
47053;SDS011;32811;52.382;5.270;2024-01-11T13:03:39;23.60;;;13.35;;
47053;SDS011;32811;52.382;5.270;2024-01-11T13:06:10;25.42;;;14.40;;
47053;SDS011;32811;52.382;5.270;2024-01-11T13:08:38;19.48;;;12.07;;
47053;SDS011;32811;52.382;5.270;2024-01-11T13:11:06;17.85;;;12.52;;
47053;SDS011;32811;52.382;5.270;2024-01-11T13:13:33;18.55;;;11.35;;
47053;SDS011;32811;52.382;5.270;2024-01-11T13:16:03;19.45;;;11.95;;
47053;SDS011;32811;52.382;5.270;2024-01-11T13:18:32;19.60;;;12.55;;
47053;SDS011;32811;52.382;5.270;2024-01-11T13:20:59;18.33;;;11.10;;
47053;SDS011;32811;52.382;5.270;2024-01-11T13:23:26;17.27;;;11.00;;
47053;SDS011;32811;52.382;5.270;2024-01-11T13:25:52;17.33;;;11.43;;
47053;SDS011;32811;52.382;5.270;2024-01-11T13:28:19;18.83;;;11.60;;
47053;SDS011;32811;52.382;5.270;2024-01-11T13:30:46;17.23;;;10.60;;
47053;SDS011;32811;52.382;5.270;2024-01-11T13:33:15;18.83;;;10.48;;
47053;SDS011;32811;52.382;5.270;2024-01-11T13:35:45;17.95;;;10.55;;
47053;SDS011;32811;52.382;5.270;2024-01-11T13:38:12;14.32;;;9.95;;
47053;SDS011;32811;52.382;5.270;2024-01-11T13:40:39;12.65;;;9.65;;
47053;SDS011;32811;52.382;5.270;2024-01-11T13:43:06;15.27;;;9.45;;
47053;SDS011;32811;52.382;5.270;2024-01-11T13:45:33;13.77;;;9.32;;
47053;SDS011;32811;52.382;5.270;2024-01-11T13:48:03;15.88;;;10.07;;
47053;SDS011;32811;52.382;5.270;2024-01-11T13:50:33;13.30;;;9.65;;
47053;SDS011;32811;52.382;5.270;2024-01-11T13:53:00;14.30;;;9.00;;
47053;SDS011;32811;52.382;5.270;2024-01-11T13:55:28;13.57;;;8.80;;
47053;SDS011;32811;52.382;5.270;2024-01-11T13:58:03;15.50;;;9.75;;
47053;SDS011;32811;52.382;5.270;2024-01-11T14:00:30;15.88;;;9.45;;
47053;SDS011;32811;52.382;5.270;2024-01-11T14:02:58;15.18;;;9.80;;
47053;SDS011;32811;52.382;5.270;2024-01-11T14:05:25;14.18;;;8.85;;
47053;SDS011;32811;52.382;5.270;2024-01-11T14:07:51;18.60;;;9.43;;
47053;SDS011;32811;52.382;5.270;2024-01-11T14:10:24;15.57;;;9.95;;
47053;SDS011;32811;52.382;5.270;2024-01-11T14:12:53;14.00;;;9.45;;
47053;SDS011;32811;52.382;5.270;2024-01-11T14:15:20;16.05;;;9.85;;
47053;SDS011;32811;52.382;5.270;2024-01-11T14:17:48;14.18;;;8.85;;
47053;SDS011;32811;52.382;5.270;2024-01-11T14:20:15;13.90;;;9.15;;
47053;SDS011;32811;52.382;5.270;2024-01-11T14:22:44;16.40;;;10.55;;
47053;SDS011;32811;52.382;5.270;2024-01-11T14:25:19;16.38;;;9.35;;